createdAt,value
2023-02-14T00:01:40.278Z,88.91
2023-02-14T00:04:07.910Z,89.11
2023-02-14T00:06:35.514Z,89.02
2023-02-14T00:09:02.413Z,88.83
2023-02-14T00:11:30.021Z,88.72
2023-02-14T00:14:16.164Z,88.98
2023-02-14T00:16:43.813Z,88.34
2023-02-14T00:19:11.742Z,88.60
2023-02-14T00:21:38.894Z,88.44
2023-02-14T00:24:07.345Z,88.91
2023-02-14T00:26:34.853Z,88.53
2023-02-14T00:29:02.165Z,88.56
2023-02-14T00:31:28.912Z,88.41
2023-02-14T00:33:55.666Z,88.77
2023-02-14T00:36:22.718Z,88.50
2023-02-14T00:38:49.436Z,88.57
2023-02-14T00:41:19.281Z,89.05
2023-02-14T00:43:50.580Z,88.05
2023-02-14T00:46:18.015Z,88.17
2023-02-14T00:48:45.853Z,88.12
2023-02-14T00:51:13.235Z,87.60
2023-02-14T00:53:40.128Z,88.18
2023-02-14T00:56:07.585Z,87.93
2023-02-14T00:58:34.610Z,87.97
2023-02-14T01:01:01.688Z,87.30
2023-02-14T01:03:28.806Z,87.51
2023-02-14T01:05:55.387Z,87.45
2023-02-14T01:08:22.181Z,87.85
2023-02-14T01:10:48.834Z,87.46
2023-02-14T01:13:15.877Z,87.40
2023-02-14T01:15:47.120Z,87.14
2023-02-14T01:18:14.646Z,87.61
2023-02-14T01:20:41.793Z,87.46
2023-02-14T01:23:08.568Z,87.26
2023-02-14T01:25:36.977Z,87.53
2023-02-14T01:28:04.546Z,88.03
2023-02-14T01:30:31.680Z,87.53
2023-02-14T01:32:58.693Z,87.43
2023-02-14T01:35:25.340Z,88.00
2023-02-14T01:37:52.310Z,88.19
2023-02-14T01:40:19.338Z,88.08
2023-02-14T01:42:46.055Z,88.01
2023-02-14T01:45:18.339Z,87.70
2023-02-14T01:47:46.926Z,88.16
2023-02-14T01:50:18.272Z,88.16
2023-02-14T01:52:50.997Z,88.49
2023-02-14T01:55:29.218Z,88.52
2023-02-14T01:57:59.697Z,88.77
2023-02-14T02:00:45.785Z,88.53
2023-02-14T02:03:13.807Z,89.07
2023-02-14T02:05:44.055Z,89.27
2023-02-14T02:08:11.855Z,89.11
2023-02-14T02:10:39.084Z,89.04
2023-02-14T02:13:09.231Z,89.14
2023-02-14T02:15:42.130Z,88.87
2023-02-14T02:18:13.941Z,88.71
2023-02-14T02:20:46.007Z,88.70
2023-02-14T02:23:31.751Z,89.24
2023-02-14T02:26:04.774Z,88.81
2023-02-14T02:28:50.039Z,88.93
2023-02-14T02:31:29.227Z,89.30
2023-02-14T02:33:58.995Z,88.87
2023-02-14T02:36:25.906Z,89.37
2023-02-14T02:38:56.180Z,89.04
2023-02-14T02:41:26.643Z,89.18
2023-02-14T02:43:57.002Z,89.68
2023-02-14T02:46:43.017Z,89.91
2023-02-14T02:49:36.997Z,89.65
2023-02-14T02:52:26.319Z,89.68
2023-02-14T02:54:58.783Z,89.55
2023-02-14T02:57:29.509Z,89.77
2023-02-14T02:59:57.474Z,89.54
2023-02-14T03:02:24.524Z,89.49
2023-02-14T03:04:54.112Z,89.71
2023-02-14T03:07:35.320Z,89.41
2023-02-14T03:10:07.677Z,89.88
2023-02-14T03:12:37.440Z,89.79
2023-02-14T03:15:23.628Z,90.15
2023-02-14T03:17:59.855Z,90.04
2023-02-14T03:20:56.251Z,90.21
2023-02-14T03:23:28.976Z,90.49
2023-02-14T03:26:07.791Z,90.48
2023-02-14T03:28:42.967Z,90.67
2023-02-14T03:31:10.193Z,90.68
2023-02-14T03:33:58.733Z,90.90
2023-02-14T03:36:35.064Z,90.88
2023-02-14T03:39:11.456Z,90.88
2023-02-14T03:41:43.836Z,90.82
2023-02-14T03:44:11.460Z,90.69
2023-02-14T03:46:46.545Z,90.78
2023-02-14T03:49:17.557Z,90.86
2023-02-14T03:51:47.177Z,90.54
2023-02-14T03:54:15.218Z,91.07
2023-02-14T03:56:47.872Z,91.01
2023-02-14T03:59:17.683Z,91.19
2023-02-14T04:01:48.149Z,91.47
2023-02-14T04:04:17.848Z,91.18
2023-02-14T04:06:45.420Z,91.16
2023-02-14T04:09:12.365Z,91.32
2023-02-14T04:11:39.407Z,91.36
2023-02-14T04:14:06.140Z,91.48
2023-02-14T04:16:56.228Z,91.38
2023-02-14T04:19:23.429Z,91.66
2023-02-14T04:21:51.629Z,91.85
2023-02-14T04:24:18.992Z,91.75
2023-02-14T04:27:05.650Z,91.69
2023-02-14T04:29:32.236Z,91.71
2023-02-14T04:31:58.883Z,91.74
2023-02-14T04:34:25.668Z,92.35
2023-02-14T04:36:52.379Z,92.46
2023-02-14T04:39:19.264Z,92.28
2023-02-14T04:41:46.245Z,92.43
2023-02-14T04:44:12.813Z,92.70
2023-02-14T04:46:39.479Z,92.36
2023-02-14T04:49:06.158Z,92.20
2023-02-14T04:51:32.899Z,92.61
2023-02-14T04:53:59.655Z,92.47
2023-02-14T04:56:27.102Z,92.65
2023-02-14T04:58:54.693Z,92.40
2023-02-14T05:01:21.566Z,92.72
2023-02-14T05:03:48.216Z,92.85
2023-02-14T05:06:15.329Z,92.58
2023-02-14T05:08:42.107Z,92.54
2023-02-14T05:11:09.068Z,92.67
2023-02-14T05:13:35.778Z,93.07
2023-02-14T05:16:02.925Z,92.92
2023-02-14T05:18:29.992Z,92.84
2023-02-14T05:20:56.846Z,92.96
2023-02-14T05:23:24.235Z,92.93
2023-02-14T05:25:51.990Z,92.86
2023-02-14T05:28:19.562Z,92.86
2023-02-14T05:30:47.960Z,93.27
2023-02-14T05:33:15.162Z,92.82
2023-02-14T05:35:42.092Z,93.12
2023-02-14T05:38:09.083Z,93.41
2023-02-14T05:40:35.669Z,93.31
2023-02-14T05:43:02.700Z,93.32
2023-02-14T05:45:29.283Z,93.25
2023-02-14T05:47:55.799Z,93.25
2023-02-14T05:50:22.607Z,93.41
2023-02-14T05:52:49.586Z,93.39
2023-02-14T05:55:16.269Z,93.21
2023-02-14T05:57:43.778Z,93.63
2023-02-14T06:00:10.692Z,93.39
2023-02-14T06:02:37.678Z,93.44
2023-02-14T06:05:04.955Z,93.52
2023-02-14T06:07:31.580Z,93.29
2023-02-14T06:09:58.679Z,93.00
2023-02-14T06:12:25.616Z,93.02
2023-02-14T06:14:52.535Z,93.36
2023-02-14T06:17:19.510Z,93.65
2023-02-14T06:19:46.248Z,93.71
2023-02-14T06:22:12.988Z,93.80
2023-02-14T06:24:39.946Z,93.68
2023-02-14T06:27:06.776Z,93.81
2023-02-14T06:29:33.432Z,93.75
2023-02-14T06:32:05.769Z,93.78
2023-02-14T06:34:33.646Z,93.46
2023-02-14T06:37:00.681Z,93.56
2023-02-14T06:39:27.948Z,93.70
2023-02-14T06:41:54.540Z,93.83
2023-02-14T06:44:21.315Z,93.87
2023-02-14T06:46:48.312Z,94.00
2023-02-14T06:49:15.260Z,94.13
2023-02-14T06:51:42.014Z,94.09
2023-02-14T06:54:09.031Z,93.90
2023-02-14T06:56:35.932Z,94.26
2023-02-14T06:59:03.038Z,94.33
2023-02-14T07:01:29.972Z,94.14
2023-02-14T07:03:56.553Z,94.50
2023-02-14T07:06:23.368Z,94.21
2023-02-14T07:08:50.502Z,94.40
2023-02-14T07:11:17.954Z,94.31
2023-02-14T07:13:44.937Z,94.44
2023-02-14T07:16:11.863Z,94.55
2023-02-14T07:18:39.096Z,94.60
2023-02-14T07:21:05.654Z,94.63
2023-02-14T07:23:33.023Z,94.57
2023-02-14T07:26:00.137Z,94.56
2023-02-14T07:28:27.387Z,94.39
2023-02-14T07:30:54.124Z,94.38
2023-02-14T07:33:20.890Z,94.33
2023-02-14T07:35:48.672Z,94.02
2023-02-14T07:38:15.439Z,94.15
2023-02-14T07:40:42.347Z,94.24
2023-02-14T07:43:09.285Z,94.30
2023-02-14T07:45:35.847Z,94.03
2023-02-14T07:48:02.715Z,94.13
2023-02-14T07:50:29.842Z,94.06
2023-02-14T07:52:56.873Z,93.87
2023-02-14T07:55:25.157Z,93.81
2023-02-14T07:57:51.977Z,93.61
2023-02-14T08:00:18.979Z,93.73
2023-02-14T08:02:46.155Z,93.44
2023-02-14T08:05:14.763Z,93.64
2023-02-14T08:07:43.060Z,93.20
2023-02-14T08:10:12.858Z,93.13
2023-02-14T08:12:58.778Z,93.15
2023-02-14T08:15:49.145Z,92.70
2023-02-14T08:18:17.483Z,92.72
2023-02-14T08:20:45.111Z,92.40
2023-02-14T08:23:12.317Z,91.93
2023-02-14T08:25:39.727Z,91.82
2023-02-14T08:28:06.889Z,91.45
2023-02-14T08:30:36.237Z,90.78
2023-02-14T08:33:03.252Z,90.23
2023-02-14T08:35:30.141Z,89.84
2023-02-14T08:37:56.949Z,89.51
2023-02-14T08:40:24.161Z,89.18
2023-02-14T08:42:50.915Z,89.70
2023-02-14T08:45:18.185Z,88.80
2023-02-14T08:47:45.705Z,88.67
2023-02-14T08:50:14.644Z,87.92
2023-02-14T08:52:43.763Z,87.92
2023-02-14T08:55:11.687Z,87.18
2023-02-14T08:57:38.248Z,87.44
2023-02-14T09:00:06.327Z,87.21
2023-02-14T09:02:33.285Z,86.69
2023-02-14T09:05:00.907Z,86.67
2023-02-14T09:07:28.355Z,85.72
2023-02-14T09:09:54.961Z,84.69
2023-02-14T09:12:22.172Z,83.95
2023-02-14T09:14:49.359Z,83.83
2023-02-14T09:17:16.603Z,83.59
2023-02-14T09:19:43.662Z,83.64
2023-02-14T09:22:11.245Z,83.46
2023-02-14T09:24:39.257Z,83.89
2023-02-14T09:27:06.179Z,83.52
2023-02-14T09:29:32.871Z,82.79
2023-02-14T09:32:00.380Z,83.07
2023-02-14T09:34:28.543Z,82.36
2023-02-14T09:37:14.083Z,81.91
2023-02-14T09:39:40.896Z,81.58
2023-02-14T09:42:27.188Z,81.61
2023-02-14T09:44:54.071Z,81.19
2023-02-14T09:47:20.818Z,79.40
2023-02-14T09:49:48.963Z,79.48
2023-02-14T09:52:18.433Z,79.12
2023-02-14T09:54:48.920Z,79.34
2023-02-14T09:57:34.107Z,78.76
2023-02-14T10:00:23.149Z,77.57
2023-02-14T10:02:52.883Z,78.48
2023-02-14T10:05:24.590Z,78.17
2023-02-14T10:07:54.228Z,78.09
2023-02-14T10:10:39.657Z,78.60
2023-02-14T10:13:15.748Z,78.82
2023-02-14T10:15:48.493Z,77.29
2023-02-14T10:18:16.572Z,76.71
2023-02-14T10:20:45.142Z,77.07
2023-02-14T10:23:32.224Z,76.47
2023-02-14T10:26:04.296Z,76.04
2023-02-14T10:28:33.180Z,75.94
2023-02-14T10:31:12.221Z,75.79
2023-02-14T10:33:42.218Z,75.40
2023-02-14T10:36:18.493Z,74.49
2023-02-14T10:38:54.875Z,74.52
2023-02-14T10:41:22.465Z,73.96
2023-02-14T10:44:03.999Z,74.16
2023-02-14T10:46:34.795Z,73.42
2023-02-14T10:49:13.807Z,73.22
2023-02-14T10:51:40.723Z,73.30
2023-02-14T10:54:39.723Z,74.01
2023-02-14T10:57:25.038Z,73.52
2023-02-14T11:00:02.843Z,73.24
2023-02-14T11:02:32.472Z,72.77
2023-02-14T11:05:00.240Z,71.83
2023-02-14T11:07:27.388Z,72.22
2023-02-14T11:09:57.560Z,72.72
2023-02-14T11:12:40.946Z,72.18
2023-02-14T11:15:10.279Z,73.11
2023-02-14T11:17:37.949Z,72.00
2023-02-14T11:20:20.706Z,72.15
2023-02-14T11:22:47.406Z,72.33
2023-02-14T11:25:21.387Z,72.36
2023-02-14T11:27:50.981Z,71.36
2023-02-14T11:30:25.227Z,71.61
2023-02-14T11:32:55.161Z,71.39
2023-02-14T11:35:27.584Z,70.60
2023-02-14T11:37:56.242Z,70.07
2023-02-14T11:40:29.200Z,69.91
2023-02-14T11:43:13.347Z,70.05
2023-02-14T11:45:42.409Z,69.86
2023-02-14T11:48:38.719Z,69.93
2023-02-14T11:51:09.145Z,70.39
2023-02-14T11:53:39.742Z,69.16
2023-02-14T11:56:06.767Z,68.43
2023-02-14T11:58:39.051Z,68.75
2023-02-14T12:01:05.897Z,68.75
2023-02-14T12:03:46.597Z,67.99
2023-02-14T12:06:21.941Z,67.77
2023-02-14T12:08:49.239Z,67.11
2023-02-14T12:11:20.973Z,66.97
2023-02-14T12:13:56.052Z,67.28
2023-02-14T12:16:28.699Z,66.83
2023-02-14T12:19:17.583Z,67.00
2023-02-14T12:21:48.286Z,66.16
2023-02-14T12:24:18.764Z,66.64
2023-02-14T12:26:49.751Z,66.88
2023-02-14T12:29:20.974Z,65.88
2023-02-14T12:31:49.544Z,63.98
2023-02-14T12:34:18.856Z,65.08
2023-02-14T12:37:04.971Z,65.74
2023-02-14T12:39:50.646Z,65.80
2023-02-14T12:42:17.945Z,65.56
2023-02-14T12:44:50.877Z,64.94
2023-02-14T12:47:20.459Z,64.09
2023-02-14T12:50:10.854Z,63.96
2023-02-14T12:52:47.024Z,63.39
2023-02-14T12:55:32.834Z,63.27
2023-02-14T12:58:05.451Z,63.00
2023-02-14T13:00:34.890Z,62.77
2023-02-14T13:03:07.597Z,62.79
2023-02-14T13:05:45.467Z,62.74
2023-02-14T13:08:30.739Z,63.28
2023-02-14T13:10:57.961Z,62.78
2023-02-14T13:13:45.677Z,63.10
2023-02-14T13:16:18.586Z,62.24
2023-02-14T13:19:00.669Z,62.86
2023-02-14T13:21:30.742Z,62.62
2023-02-14T13:24:18.393Z,62.65
2023-02-14T13:26:48.560Z,62.19
2023-02-14T13:29:17.799Z,61.04
2023-02-14T13:31:45.460Z,61.02
2023-02-14T13:34:24.329Z,61.19
2023-02-14T13:36:51.601Z,62.16
2023-02-14T13:39:40.163Z,60.52
2023-02-14T13:42:07.331Z,59.71
2023-02-14T13:44:41.873Z,60.35
2023-02-14T13:47:16.548Z,60.39
2023-02-14T13:49:49.168Z,59.93
2023-02-14T13:52:36.522Z,59.99
2023-02-14T13:55:06.170Z,59.90
2023-02-14T13:57:37.432Z,61.26
2023-02-14T14:00:19.839Z,59.23
2023-02-14T14:02:47.830Z,60.08
2023-02-14T14:05:29.764Z,58.25
2023-02-14T14:08:16.705Z,57.33
2023-02-14T14:10:45.378Z,58.60
2023-02-14T14:13:31.243Z,57.52
2023-02-14T14:16:17.026Z,58.89
2023-02-14T14:18:44.193Z,58.07
2023-02-14T14:21:15.379Z,55.14
2023-02-14T14:23:42.552Z,55.55
2023-02-14T14:26:27.988Z,56.45
2023-02-14T14:28:55.403Z,55.19
2023-02-14T14:31:22.481Z,54.61
2023-02-14T14:33:57.377Z,56.41
2023-02-14T14:36:24.473Z,56.16
2023-02-14T14:38:53.497Z,54.54
2023-02-14T14:41:27.444Z,55.57
2023-02-14T14:43:54.991Z,53.74
2023-02-14T14:46:22.482Z,54.83
2023-02-14T14:48:51.121Z,55.47
2023-02-14T14:51:22.931Z,55.39
2023-02-14T14:53:56.585Z,54.03
2023-02-14T14:56:25.604Z,53.92
2023-02-14T14:58:52.761Z,54.89
2023-02-14T15:01:30.429Z,54.53
2023-02-14T15:04:12.315Z,54.55
2023-02-14T15:06:39.358Z,53.67
2023-02-14T15:09:13.666Z,53.78
2023-02-14T15:12:00.210Z,54.02
2023-02-14T15:14:28.936Z,54.84
2023-02-14T15:17:05.490Z,53.70
2023-02-14T15:19:41.702Z,51.06
2023-02-14T15:22:21.036Z,50.44
2023-02-14T15:24:48.819Z,50.35
2023-02-14T15:27:18.149Z,49.84
2023-02-14T15:29:55.499Z,49.37
2023-02-14T15:32:23.016Z,48.27
2023-02-14T15:34:50.016Z,47.83
2023-02-14T15:37:18.294Z,47.42
2023-02-14T15:39:47.854Z,48.05
2023-02-14T15:42:22.928Z,48.38
2023-02-14T15:44:49.929Z,49.97
2023-02-14T15:47:17.376Z,50.42
2023-02-14T15:49:46.578Z,51.70
2023-02-14T15:52:15.324Z,53.18
2023-02-14T15:54:47.372Z,53.23
2023-02-14T15:57:34.009Z,53.78
2023-02-14T16:00:00.846Z,54.04
2023-02-14T16:02:38.125Z,55.07
2023-02-14T16:05:07.319Z,56.00
2023-02-14T16:07:34.900Z,56.77
2023-02-14T16:10:19.947Z,57.38
2023-02-14T16:12:55.406Z,58.35
2023-02-14T16:15:28.074Z,59.53
2023-02-14T16:17:54.876Z,60.31
2023-02-14T16:20:22.741Z,60.86
2023-02-14T16:22:50.550Z,60.43
2023-02-14T16:25:17.510Z,60.55
2023-02-14T16:27:44.370Z,60.62
2023-02-14T16:30:17.874Z,60.49
2023-02-14T16:32:50.083Z,61.23
2023-02-14T16:35:19.761Z,61.37
2023-02-14T16:37:47.629Z,61.43
2023-02-14T16:40:15.860Z,62.49
2023-02-14T16:42:43.086Z,62.61
2023-02-14T16:45:19.156Z,63.28
2023-02-14T16:47:48.758Z,64.34
2023-02-14T16:50:15.868Z,64.66
2023-02-14T16:52:45.125Z,64.50
2023-02-14T16:55:16.346Z,64.81
2023-02-14T16:57:45.793Z,65.51
2023-02-14T17:00:12.899Z,65.69
2023-02-14T17:02:39.730Z,65.88
2023-02-14T17:05:06.791Z,66.78
2023-02-14T17:07:33.978Z,67.36
2023-02-14T17:10:05.104Z,67.44
2023-02-14T17:12:35.057Z,68.28
2023-02-14T17:15:08.340Z,68.56
2023-02-14T17:17:36.238Z,68.98
2023-02-14T17:20:04.639Z,69.50
2023-02-14T17:22:32.048Z,69.70
2023-02-14T17:24:58.912Z,69.77
2023-02-14T17:27:25.655Z,70.15
2023-02-14T17:29:52.871Z,70.74
2023-02-14T17:32:19.821Z,71.41
2023-02-14T17:34:47.024Z,71.72
2023-02-14T17:37:14.118Z,72.89
2023-02-14T17:39:40.846Z,72.43
2023-02-14T17:42:10.430Z,72.82
2023-02-14T17:44:39.074Z,73.02
2023-02-14T17:47:06.085Z,73.52
2023-02-14T17:49:32.725Z,73.63
2023-02-14T17:51:59.831Z,74.05
2023-02-14T17:54:26.515Z,73.78
2023-02-14T17:56:53.398Z,74.64
2023-02-14T17:59:20.447Z,75.30
2023-02-14T18:01:47.662Z,75.03
2023-02-14T18:04:14.395Z,75.25
2023-02-14T18:06:42.839Z,75.73
2023-02-14T18:09:10.054Z,75.61
2023-02-14T18:11:38.669Z,76.60
2023-02-14T18:14:05.337Z,77.14
2023-02-14T18:16:32.176Z,76.97
2023-02-14T18:19:01.929Z,77.52
2023-02-14T18:21:31.981Z,78.07
2023-02-14T18:24:00.152Z,78.42
2023-02-14T18:26:27.383Z,77.96
2023-02-14T18:28:55.063Z,78.13
2023-02-14T18:31:21.833Z,78.19
2023-02-14T18:33:50.162Z,78.73
2023-02-14T18:36:19.467Z,78.85
2023-02-14T18:38:47.010Z,78.49
2023-02-14T18:41:18.424Z,79.05
2023-02-14T18:43:45.159Z,79.35
2023-02-14T18:46:17.300Z,79.82
2023-02-14T18:48:44.426Z,80.28
2023-02-14T18:51:12.959Z,80.35
2023-02-14T18:53:40.556Z,80.13
2023-02-14T18:56:09.927Z,80.57
2023-02-14T18:58:36.666Z,80.54
2023-02-14T19:01:07.814Z,80.33
2023-02-14T19:03:34.759Z,81.22
2023-02-14T19:06:02.237Z,81.11
2023-02-14T19:08:36.319Z,81.30
2023-02-14T19:11:09.786Z,81.86
2023-02-14T19:13:36.422Z,81.45
2023-02-14T19:16:14.259Z,81.35
2023-02-14T19:18:41.484Z,82.50
2023-02-14T19:21:12.639Z,82.52
2023-02-14T19:23:39.512Z,81.98
2023-02-14T19:26:13.470Z,82.30
2023-02-14T19:28:41.069Z,82.41
2023-02-14T19:31:08.935Z,82.67
2023-02-14T19:33:54.389Z,82.40
2023-02-14T19:36:22.660Z,83.45
2023-02-14T19:38:50.579Z,83.55
2023-02-14T19:41:19.291Z,83.36
2023-02-14T19:43:47.631Z,83.25
2023-02-14T19:46:15.551Z,83.67
2023-02-14T19:48:44.551Z,83.70
2023-02-14T19:51:18.516Z,84.04
2023-02-14T19:53:46.654Z,84.49
2023-02-14T19:56:17.938Z,84.43
2023-02-14T19:58:45.299Z,84.90
2023-02-14T20:01:20.745Z,84.72
2023-02-14T20:03:47.741Z,85.44
2023-02-14T20:06:15.436Z,85.62
2023-02-14T20:08:42.107Z,85.04
2023-02-14T20:11:20.048Z,85.08
2023-02-14T20:13:46.970Z,85.79
2023-02-14T20:16:13.799Z,84.88
2023-02-14T20:18:40.525Z,85.04
2023-02-14T20:21:14.635Z,85.35
2023-02-14T20:23:41.395Z,84.91
2023-02-14T20:26:14.849Z,84.46
2023-02-14T20:28:43.156Z,84.40
2023-02-14T20:31:11.098Z,84.17
2023-02-14T20:33:38.910Z,84.28
2023-02-14T20:36:06.223Z,83.77
2023-02-14T20:38:33.514Z,83.66
2023-02-14T20:41:10.493Z,83.98
2023-02-14T20:43:37.672Z,83.37
2023-02-14T20:46:06.478Z,83.47
2023-02-14T20:48:34.426Z,83.37
2023-02-14T20:51:11.285Z,83.59
2023-02-14T20:53:39.205Z,83.21
2023-02-14T20:56:06.877Z,82.90
2023-02-14T20:58:35.395Z,82.58
2023-02-14T21:01:15.260Z,82.83
2023-02-14T21:03:42.994Z,82.55
2023-02-14T21:06:11.590Z,82.39
2023-02-14T21:08:38.726Z,82.70
2023-02-14T21:11:06.520Z,83.03
2023-02-14T21:13:34.098Z,82.46
2023-02-14T21:16:02.088Z,82.65
2023-02-14T21:18:29.197Z,82.39
2023-02-14T21:21:03.126Z,81.89
2023-02-14T21:23:30.078Z,82.37
2023-02-14T21:25:56.821Z,81.95
2023-02-14T21:28:23.675Z,83.00
2023-02-14T21:30:50.423Z,82.33
2023-02-14T21:33:17.133Z,82.82
2023-02-14T21:35:43.750Z,83.03
2023-02-14T21:38:10.462Z,83.24
2023-02-14T21:40:36.964Z,83.03
2023-02-14T21:43:04.011Z,83.47
2023-02-14T21:45:49.366Z,83.79
2023-02-14T21:48:34.819Z,83.78
2023-02-14T21:51:06.190Z,84.05
2023-02-14T21:53:34.144Z,84.03
2023-02-14T21:56:09.622Z,84.98
2023-02-14T21:58:37.125Z,84.91
2023-02-14T22:04:29.920Z,85.56
2023-02-14T22:06:57.122Z,85.21
2023-02-14T22:09:24.577Z,85.07
2023-02-14T22:11:51.339Z,85.33
2023-02-14T22:14:18.511Z,85.46
2023-02-14T22:16:45.584Z,85.39
2023-02-14T22:19:13.453Z,85.46
2023-02-14T22:21:40.119Z,85.41
2023-02-14T22:24:06.966Z,85.69
2023-02-14T22:26:38.514Z,85.75
2023-02-14T22:29:05.594Z,86.08
2023-02-14T22:31:33.672Z,85.58
2023-02-14T22:34:00.753Z,85.81
2023-02-14T22:36:27.506Z,85.56
2023-02-14T22:38:54.613Z,85.23
2023-02-14T22:41:22.433Z,85.40
2023-02-14T22:43:49.638Z,85.85
2023-02-14T22:46:21.139Z,85.85
2023-02-14T22:48:49.170Z,86.24
2023-02-14T22:51:28.160Z,86.27
2023-02-14T22:53:56.978Z,86.19
2023-02-14T22:56:23.904Z,86.09
2023-02-14T22:58:58.454Z,86.01
2023-02-14T23:01:26.583Z,85.87
2023-02-14T23:03:54.767Z,86.06
2023-02-14T23:06:22.512Z,86.35
2023-02-14T23:08:49.528Z,86.62
2023-02-14T23:11:17.904Z,86.52
2023-02-14T23:14:04.080Z,86.56
2023-02-14T23:16:49.388Z,86.58
2023-02-14T23:19:36.171Z,86.66
2023-02-14T23:22:10.367Z,86.75
2023-02-14T23:24:37.037Z,87.10
2023-02-14T23:27:04.522Z,87.62
2023-02-14T23:29:31.700Z,87.57
2023-02-14T23:31:58.414Z,87.63
2023-02-14T23:34:27.745Z,87.94
2023-02-14T23:36:54.790Z,87.92
2023-02-14T23:39:22.044Z,87.96
2023-02-14T23:41:49.226Z,87.95
2023-02-14T23:44:20.722Z,87.81
2023-02-14T23:46:49.670Z,88.17
2023-02-14T23:49:16.893Z,87.97
2023-02-14T23:51:45.397Z,87.99
2023-02-14T23:54:12.593Z,87.84
2023-02-14T23:56:40.141Z,88.38
2023-02-14T23:59:08.053Z,88.12
